Aviation Digital Data Service (ADDS)

Output produced by METARs form (0351 UTC 22 February 2017)
found at http://aviationweather.gov/adds/metars/
 
KLFT 220253Z 00000KT 10SM BKN090 OVC110 17/15 A2989 RMK AO2 SLP120 6//// T01720150 51011 PNO